Time;durP1;ratioP1;P1;durP2;ratioP2;P2;SDS_P1;SDS_P2;PMS_P1;PMS_P2;Temp;Humidity;BMP_temperature;BMP_pressure;BME280_temperature;BME280_humidity;BME280_pressure;Samples;Min_cycle;Max_cycle;Signal;HPM_P1;HPM_P2
2021/07/02 00:00:15;;;;;;;13.07;12.00;;;14.20;99.90;;;;;;5004421;28;20204;-83
2021/07/02 00:02:42;;;;;;;14.33;13.23;;;14.10;99.90;;;;;;5013263;28;20211;-84
2021/07/02 00:05:11;;;;;;;14.40;13.30;;;14.10;99.90;;;;;;5013959;28;20265;-84
2021/07/02 00:07:38;;;;;;;14.57;13.53;;;14.10;99.90;;;;;;5013625;28;20238;-84
2021/07/02 00:10:07;;;;;;;14.33;13.13;;;14.10;99.90;;;;;;4999339;28;20203;-84
2021/07/02 00:12:34;;;;;;;14.50;13.40;;;14.00;99.90;;;;;;4991629;28;20212;-84
2021/07/02 00:15:02;;;;;;;14.47;13.27;;;14.00;99.90;;;;;;5004308;28;20672;-83
2021/07/02 00:17:30;;;;;;;14.90;13.70;;;14.00;99.90;;;;;;5001950;28;20223;-83
2021/07/02 00:19:57;;;;;;;14.80;13.50;;;14.00;99.90;;;;;;5005881;28;20215;-84
2021/07/02 00:22:24;;;;;;;14.87;13.77;;;14.00;99.90;;;;;;5013469;28;20210;-84
2021/07/02 00:24:51;;;;;;;14.47;13.37;;;13.90;99.90;;;;;;5013241;28;20211;-83
2021/07/02 00:27:18;;;;;;;14.83;13.57;;;13.90;99.90;;;;;;5013588;28;20207;-84
2021/07/02 00:29:45;;;;;;;14.03;12.93;;;13.90;99.90;;;;;;5013445;28;20206;-84
2021/07/02 00:32:11;;;;;;;13.70;12.60;;;13.90;99.90;;;;;;5013495;28;20257;-84
2021/07/02 00:34:40;;;;;;;14.77;13.47;;;13.90;99.90;;;;;;5014803;28;20202;-84
2021/07/02 00:37:07;;;;;;;14.83;13.63;;;13.90;99.90;;;;;;4999497;28;20675;-83
2021/07/02 00:39:34;;;;;;;14.80;13.70;;;13.90;99.90;;;;;;5001305;28;20306;-84
2021/07/02 00:42:01;;;;;;;13.90;12.80;;;13.90;99.90;;;;;;5013404;28;20211;-84
2021/07/02 00:44:38;;;;;;;14.53;13.33;;;13.90;99.90;;;;;;5003903;28;20196;-83
2021/07/02 00:47:05;;;;;;;15.17;13.97;;;13.80;99.90;;;;;;4996539;28;20238;-84
2021/07/02 00:49:33;;;;;;;14.73;13.60;;;13.80;99.90;;;;;;5013355;28;20200;-84
2021/07/02 00:52:02;;;;;;;15.07;13.83;;;13.80;99.90;;;;;;4996573;28;20203;-84
2021/07/02 00:54:29;;;;;;;14.90;13.43;;;13.70;99.90;;;;;;5013147;28;20199;-83
2021/07/02 00:56:56;;;;;;;14.60;13.47;;;13.70;99.90;;;;;;5013684;28;20247;-83
2021/07/02 00:59:24;;;;;;;15.60;14.30;;;13.70;99.90;;;;;;4996981;28;20319;-83
2021/07/02 01:01:50;;;;;;;14.27;12.97;;;13.70;99.90;;;;;;5008688;28;20209;-84
2021/07/02 01:04:17;;;;;;;15.00;13.70;;;13.70;99.90;;;;;;5033448;28;20235;-83
2021/07/02 01:06:46;;;;;;;14.57;13.47;;;13.60;99.90;;;;;;5004107;28;20211;-84
2021/07/02 01:09:15;;;;;;;14.43;13.23;;;13.60;99.90;;;;;;5016272;28;20720;-83
2021/07/02 01:11:42;;;;;;;15.13;13.83;;;13.50;99.90;;;;;;5008411;28;20742;-83
2021/07/02 01:14:09;;;;;;;15.53;14.13;;;13.50;99.90;;;;;;5022794;28;20203;-85
2021/07/02 01:16:38;;;;;;;14.37;13.20;;;13.50;99.90;;;;;;5003876;28;20679;-84
2021/07/02 01:19:06;;;;;;;14.93;13.50;;;13.40;99.90;;;;;;5002726;28;20249;-83
2021/07/02 01:21:35;;;;;;;15.07;13.60;;;13.50;99.90;;;;;;5003808;28;20225;-83
2021/07/02 01:24:04;;;;;;;14.13;13.03;;;13.50;99.90;;;;;;5005868;28;20196;-84
2021/07/02 01:26:32;;;;;;;14.40;13.30;;;13.60;99.90;;;;;;4995776;28;20209;-83
2021/07/02 01:29:01;;;;;;;15.63;14.43;;;13.60;99.90;;;;;;5008068;28;20237;-84
2021/07/02 01:31:28;;;;;;;15.43;13.83;;;13.60;99.90;;;;;;5006773;28;20210;-84
2021/07/02 01:33:55;;;;;;;14.37;13.17;;;13.60;99.90;;;;;;5006654;28;20209;-83
2021/07/02 01:36:24;;;;;;;14.23;13.13;;;13.50;99.90;;;;;;5002148;28;20194;-83
2021/07/02 01:38:55;;;;;;;15.00;13.70;;;13.50;99.90;;;;;;4998506;28;20218;-84
2021/07/02 01:41:24;;;;;;;15.13;13.93;;;13.50;99.90;;;;;;5014953;28;20218;-83
2021/07/02 01:43:52;;;;;;;15.97;14.47;;;13.40;99.90;;;;;;5018965;28;20586;-84
2021/07/02 01:46:20;;;;;;;15.00;13.80;;;13.40;99.90;;;;;;5002370;28;20202;-84
2021/07/02 01:48:48;;;;;;;15.30;14.00;;;13.40;99.90;;;;;;4991928;28;20238;-84
2021/07/02 01:51:17;;;;;;;15.20;13.90;;;13.30;99.90;;;;;;5001014;28;20949;-84
2021/07/02 01:53:46;;;;;;;15.70;14.30;;;13.30;99.90;;;;;;4997048;28;20294;-83
2021/07/02 01:56:14;;;;;;;14.77;13.57;;;13.30;99.90;;;;;;5002394;28;20193;-85
2021/07/02 01:58:45;;;;;;;14.57;13.47;;;13.20;99.90;;;;;;5002498;28;20224;-82
2021/07/02 02:01:19;;;;;;;15.57;14.20;;;13.20;99.90;;;;;;5000477;28;20202;-83
2021/07/02 02:03:47;;;;;;;15.70;14.37;;;13.20;99.90;;;;;;5005611;28;20248;-83
2021/07/02 02:06:15;;;;;;;15.33;14.03;;;13.20;99.90;;;;;;5000662;28;20203;-84
2021/07/02 02:08:43;;;;;;;15.63;14.27;;;13.10;99.90;;;;;;4999369;28;20215;-84
2021/07/02 02:11:11;;;;;;;16.27;14.67;;;13.10;99.90;;;;;;5004367;28;20205;-83
2021/07/02 02:13:46;;;;;;;16.13;14.83;;;13.10;99.90;;;;;;5001628;28;20197;-84
2021/07/02 02:16:13;;;;;;;16.83;15.47;;;13.00;99.90;;;;;;5016644;28;20617;-84
2021/07/02 02:18:44;;;;;;;16.47;15.00;;;12.90;99.90;;;;;;5011021;28;20576;-84
2021/07/02 02:21:11;;;;;;;16.30;14.83;;;12.90;99.90;;;;;;5003111;28;20675;-84
2021/07/02 02:23:38;;;;;;;15.83;14.33;;;12.90;99.90;;;;;;5003358;28;20207;-84
2021/07/02 02:26:06;;;;;;;15.67;14.27;;;12.90;99.90;;;;;;5007537;28;20194;-84
2021/07/02 02:28:33;;;;;;;16.33;15.03;;;12.80;99.90;;;;;;5017227;28;20220;-84
2021/07/02 02:31:03;;;;;;;17.97;16.47;;;12.80;99.90;;;;;;5005213;28;20690;-85
2021/07/02 02:33:32;;;;;;;16.00;14.50;;;12.80;99.90;;;;;;5006859;28;20202;-82
2021/07/02 02:35:59;;;;;;;15.63;14.33;;;12.80;99.90;;;;;;5017590;28;20202;-83
2021/07/02 02:38:27;;;;;;;14.90;13.70;;;12.80;99.90;;;;;;5017865;28;20209;-82
2021/07/02 02:40:55;;;;;;;15.73;14.13;;;12.80;99.90;;;;;;5022960;28;20197;-83
2021/07/02 02:43:22;;;;;;;15.20;14.00;;;12.80;99.90;;;;;;5004514;28;20196;-78
2021/07/02 02:45:49;;;;;;;15.53;14.33;;;12.80;99.90;;;;;;5016759;28;20185;-79
2021/07/02 02:48:17;;;;;;;14.63;13.43;;;12.70;99.90;;;;;;4999845;28;20239;-79
2021/07/02 02:50:44;;;;;;;15.17;14.07;;;12.70;99.90;;;;;;5015481;28;20671;-78
2021/07/02 02:53:12;;;;;;;15.47;14.13;;;12.60;99.90;;;;;;4997765;28;20293;-78
2021/07/02 02:55:40;;;;;;;15.83;14.60;;;12.60;99.90;;;;;;4996908;28;20688;-78
2021/07/02 02:58:07;;;;;;;14.00;13.00;;;12.50;99.90;;;;;;4996878;28;20217;-78
2021/07/02 03:00:34;;;;;;;15.27;14.17;;;12.50;99.90;;;;;;4996894;28;20221;-79
2021/07/02 03:03:02;;;;;;;13.90;12.90;;;12.50;99.90;;;;;;4997372;28;20224;-79
2021/07/02 03:05:30;;;;;;;15.40;14.30;;;12.50;99.90;;;;;;4997154;28;20209;-78
2021/07/02 03:07:57;;;;;;;15.00;13.90;;;12.40;99.90;;;;;;5013003;28;20701;-78
2021/07/02 03:10:24;;;;;;;14.87;13.77;;;12.30;99.90;;;;;;5001397;28;20582;-82
2021/07/02 03:12:54;;;;;;;15.03;14.03;;;12.30;99.90;;;;;;4997992;28;20585;-83
2021/07/02 03:15:21;;;;;;;14.53;13.43;;;12.20;99.90;;;;;;5001243;28;20203;-83
2021/07/02 03:17:49;;;;;;;15.03;13.83;;;12.20;99.90;;;;;;5000618;28;20316;-81
2021/07/02 03:20:16;;;;;;;15.63;14.47;;;12.10;99.90;;;;;;5000091;28;20208;-81
2021/07/02 03:22:45;;;;;;;16.30;15.10;;;12.10;99.90;;;;;;5014592;28;20280;-83
2021/07/02 03:25:13;;;;;;;16.17;14.87;;;12.10;99.90;;;;;;5021664;28;20671;-84
2021/07/02 03:27:40;;;;;;;16.43;15.13;;;12.10;99.90;;;;;;4997071;28;20248;-81
2021/07/02 03:30:10;;;;;;;17.47;15.97;;;12.10;99.90;;;;;;5018739;28;20197;-80
2021/07/02 03:32:39;;;;;;;17.73;16.23;;;12.10;99.90;;;;;;4999022;28;20201;-81
2021/07/02 03:35:09;;;;;;;17.10;15.50;;;12.10;99.90;;;;;;5016808;28;20577;-83
2021/07/02 03:37:38;;;;;;;18.20;16.60;;;12.10;99.90;;;;;;5008555;28;20773;-81
2021/07/02 03:40:11;;;;;;;17.60;16.10;;;12.10;99.90;;;;;;5000583;28;20263;-80
2021/07/02 03:42:44;;;;;;;18.60;16.73;;;12.10;99.90;;;;;;5001506;28;20290;-80
2021/07/02 03:45:12;;;;;;;18.60;17.00;;;12.10;99.90;;;;;;5014465;28;20272;-80
2021/07/02 03:47:39;;;;;;;18.03;16.37;;;12.10;99.90;;;;;;5002433;28;20228;-81
2021/07/02 03:50:09;;;;;;;17.83;16.27;;;12.10;99.90;;;;;;4998613;28;20193;-81
2021/07/02 03:52:36;;;;;;;18.90;16.93;;;12.10;99.90;;;;;;4999918;28;20201;-81
2021/07/02 03:55:03;;;;;;;19.10;17.47;;;12.10;99.90;;;;;;5007668;28;20588;-81
2021/07/02 03:57:33;;;;;;;17.33;15.73;;;12.20;99.90;;;;;;5005304;28;20220;-78
2021/07/02 04:00:00;;;;;;;17.30;15.90;;;12.20;99.90;;;;;;5000688;28;20611;-82
2021/07/02 04:02:28;;;;;;;17.17;15.73;;;12.10;99.90;;;;;;4995610;28;20253;-82
2021/07/02 04:04:55;;;;;;;17.50;16.10;;;12.20;99.90;;;;;;5010814;28;20205;-81
2021/07/02 04:07:24;;;;;;;15.97;14.87;;;12.20;99.90;;;;;;5016084;28;20299;-80
2021/07/02 04:09:51;;;;;;;16.90;15.50;;;12.30;99.90;;;;;;5000477;28;20288;-80
2021/07/02 04:12:18;;;;;;;16.47;15.10;;;12.30;99.90;;;;;;5015257;28;20196;-82
2021/07/02 04:14:46;;;;;;;15.80;14.53;;;12.40;99.90;;;;;;5000209;28;20202;-82
2021/07/02 04:17:13;;;;;;;17.23;15.73;;;12.40;99.90;;;;;;5001042;28;20201;-83
2021/07/02 04:19:41;;;;;;;16.93;15.53;;;12.50;99.90;;;;;;5015568;28;20217;-82
2021/07/02 04:22:09;;;;;;;20.17;18.27;;;12.50;99.90;;;;;;5015940;28;20219;-82
2021/07/02 04:24:36;;;;;;;16.83;15.33;;;12.60;99.90;;;;;;5021999;28;20209;-82
2021/07/02 04:27:03;;;;;;;17.17;15.70;;;12.70;99.90;;;;;;5022058;28;20197;-83
2021/07/02 04:29:30;;;;;;;17.10;15.53;;;12.80;99.90;;;;;;5027805;28;20201;-83
2021/07/02 04:31:58;;;;;;;16.00;14.80;;;12.90;99.90;;;;;;5012028;28;20195;-82
2021/07/02 04:34:25;;;;;;;15.47;14.27;;;13.00;99.90;;;;;;5036123;28;20205;-82
2021/07/02 04:36:52;;;;;;;16.37;15.07;;;13.10;99.90;;;;;;5005321;28;20205;-82
2021/07/02 04:39:21;;;;;;;16.63;15.37;;;13.20;99.90;;;;;;5034149;28;20727;-82
2021/07/02 04:41:48;;;;;;;9.87;8.87;;;13.30;99.90;;;;;;5019306;28;20197;-82
2021/07/02 04:44:15;;;;;;;10.10;9.10;;;13.50;99.90;;;;;;5006837;28;20246;-82
2021/07/02 04:46:41;;;;;;;10.30;9.30;;;13.60;99.90;;;;;;5020364;28;20198;-83
2021/07/02 04:49:10;;;;;;;10.77;9.70;;;13.80;99.90;;;;;;5020988;28;20214;-82
2021/07/02 04:51:37;;;;;;;10.83;9.73;;;14.10;99.90;;;;;;5020231;28;20649;-83
2021/07/02 04:54:04;;;;;;;15.50;14.30;;;14.60;99.90;;;;;;5007970;28;20206;-83
2021/07/02 04:56:30;;;;;;;15.90;14.50;;;15.10;99.90;;;;;;5017974;28;20201;-83
2021/07/02 04:58:58;;;;;;;10.97;10.07;;;15.30;99.90;;;;;;5015768;28;20216;-83
2021/07/02 05:01:25;;;;;;;10.17;9.17;;;15.50;99.90;;;;;;5023455;28;20306;-84
2021/07/02 05:03:52;;;;;;;9.33;8.50;;;15.50;99.90;;;;;;5019627;28;20200;-83
2021/07/02 05:06:20;;;;;;;9.90;9.00;;;15.60;99.90;;;;;;5018778;28;20197;-83
2021/07/02 05:08:47;;;;;;;10.30;9.40;;;15.60;99.90;;;;;;5014465;28;20208;-84
2021/07/02 05:11:14;;;;;;;10.90;10.00;;;15.70;99.90;;;;;;4999244;28;20201;-84
2021/07/02 05:13:42;;;;;;;10.80;9.90;;;15.80;99.90;;;;;;5009566;28;20201;-83
2021/07/02 05:16:10;;;;;;;11.17;10.17;;;15.90;99.90;;;;;;5023486;28;20816;-84
2021/07/02 05:18:37;;;;;;;10.00;9.00;;;16.10;99.90;;;;;;4997304;28;20236;-83
2021/07/02 05:21:04;;;;;;;12.43;11.33;;;16.20;99.90;;;;;;5022683;28;20226;-84
2021/07/02 05:23:51;;;;;;;11.50;10.07;;;16.30;99.90;;;;;;5016931;28;20206;-82
2021/07/02 05:26:18;;;;;;;9.07;8.27;;;16.30;99.90;;;;;;5018844;28;20202;-82
2021/07/02 05:28:45;;;;;;;9.30;8.50;;;16.50;99.90;;;;;;5019366;28;20229;-80
2021/07/02 05:31:12;;;;;;;9.80;8.90;;;16.50;99.90;;;;;;5005463;28;20221;-82
2021/07/02 05:33:38;;;;;;;10.40;9.40;;;16.50;99.90;;;;;;5000858;28;20208;-82
2021/07/02 05:36:06;;;;;;;10.67;9.77;;;16.50;99.90;;;;;;5020035;28;20227;-82
2021/07/02 05:38:34;;;;;;;10.27;9.27;;;16.70;99.90;;;;;;5019324;28;20229;-82
2021/07/02 05:41:01;;;;;;;7.50;5.90;;;16.90;99.90;;;;;;5002356;28;20229;-83
2021/07/02 05:43:27;;;;;;;11.20;10.17;;;17.40;99.90;;;;;;5000989;28;20208;-82
2021/07/02 05:45:55;;;;;;;7.43;6.00;;;18.00;99.90;;;;;;5000861;28;20199;-83
2021/07/02 05:48:23;;;;;;;11.90;10.87;;;18.60;99.90;;;;;;5000492;28;20244;-83
2021/07/02 05:50:50;;;;;;;8.07;6.90;;;19.20;99.90;;;;;;5017670;28;20254;-83
2021/07/02 05:53:17;;;;;;;8.83;8.03;;;19.70;99.90;;;;;;5018336;28;20200;-83
2021/07/02 05:55:46;;;;;;;10.20;9.40;;;20.30;99.90;;;;;;5031788;28;20621;-83
2021/07/02 05:58:13;;;;;;;11.50;6.70;;;20.60;99.90;;;;;;5008593;28;20221;-83
2021/07/02 06:00:40;;;;;;;7.90;6.23;;;20.80;99.90;;;;;;5003602;28;20274;-83
2021/07/02 06:03:07;;;;;;;9.30;8.40;;;21.00;99.90;;;;;;5006123;28;20210;-83
2021/07/02 06:05:34;;;;;;;7.30;6.10;;;21.30;99.90;;;;;;5018602;28;20207;-83
2021/07/02 06:08:03;;;;;;;6.30;5.70;;;21.90;99.90;;;;;;5023453;28;20223;-83
2021/07/02 06:10:30;;;;;;;7.40;6.00;;;22.00;99.90;;;;;;5004496;28;20207;-82
2021/07/02 06:12:59;;;;;;;8.97;6.00;;;22.20;99.90;;;;;;5012122;28;20193;-81
2021/07/02 06:15:26;;;;;;;9.90;9.00;;;22.30;99.90;;;;;;5017061;28;20196;-80
2021/07/02 06:18:06;;;;;;;10.57;9.77;;;22.50;99.90;;;;;;5019219;28;20220;-83
2021/07/02 06:20:33;;;;;;;9.20;8.37;;;22.50;99.90;;;;;;5001350;28;20766;-86
2021/07/02 06:23:00;;;;;;;8.57;7.77;;;22.70;99.90;;;;;;5016000;28;20291;-87
2021/07/02 06:25:27;;;;;;;11.27;10.43;;;23.10;99.90;;;;;;5016128;28;20200;-87
2021/07/02 06:27:54;;;;;;;11.60;10.70;;;23.00;99.90;;;;;;5004437;28;20220;-86
2021/07/02 06:30:22;;;;;;;13.83;12.83;;;23.40;99.90;;;;;;5006404;28;20206;-86
2021/07/02 06:32:49;;;;;;;13.83;12.83;;;23.30;99.90;;;;;;4991722;28;20205;-87
2021/07/02 06:35:16;;;;;;;14.73;13.53;;;23.40;99.90;;;;;;5003278;28;20206;-87
2021/07/02 06:37:48;;;;;;;13.40;12.50;;;23.30;99.90;;;;;;5000485;28;20736;-88
2021/07/02 06:40:16;;;;;;;12.40;11.50;;;23.10;99.90;;;;;;5015812;28;20236;-87
2021/07/02 06:42:43;;;;;;;12.80;11.70;;;23.40;99.90;;;;;;4987549;28;20209;-87
2021/07/02 06:45:12;;;;;;;10.83;10.00;;;23.50;99.90;;;;;;4999026;28;20255;-87
2021/07/02 06:47:55;;;;;;;12.10;11.20;;;23.70;99.90;;;;;;5015607;28;20220;-87
2021/07/02 06:50:23;;;;;;;11.10;10.27;;;24.00;99.90;;;;;;5023158;28;20203;-87
2021/07/02 06:52:50;;;;;;;11.07;10.27;;;24.20;99.90;;;;;;5005148;28;20204;-87
2021/07/02 06:55:17;;;;;;;13.27;12.17;;;24.30;99.90;;;;;;5006017;28;20197;-87
2021/07/02 06:57:44;;;;;;;13.03;12.13;;;24.40;99.90;;;;;;5006047;28;20233;-87
2021/07/02 07:00:11;;;;;;;13.13;12.23;;;24.40;99.90;;;;;;5001560;28;20687;-87
2021/07/02 07:02:38;;;;;;;12.83;11.80;;;24.30;99.90;;;;;;5005983;28;20574;-87
2021/07/02 07:05:08;;;;;;;11.83;11.03;;;24.50;99.90;;;;;;5013365;28;20207;-87
2021/07/02 07:07:35;;;;;;;12.70;11.70;;;24.60;99.90;;;;;;5016845;28;20234;-87
2021/07/02 07:10:02;;;;;;;10.97;9.80;;;24.80;99.90;;;;;;4999140;28;20203;-87
2021/07/02 07:12:29;;;;;;;11.37;10.57;;;24.70;99.90;;;;;;5002287;28;20283;-87
2021/07/02 07:14:56;;;;;;;13.57;12.47;;;25.10;99.90;;;;;;5005641;28;20211;-88
2021/07/02 07:17:23;;;;;;;12.63;11.60;;;25.00;99.90;;;;;;5005311;28;20212;-87
2021/07/02 07:19:50;;;;;;;12.27;11.37;;;25.20;99.90;;;;;;5005681;28;20223;-87
2021/07/02 07:22:19;;;;;;;12.67;11.77;;;25.30;99.90;;;;;;5002036;28;20258;-87
2021/07/02 07:24:46;;;;;;;12.23;11.33;;;25.50;99.90;;;;;;5014812;28;20724;-87
2021/07/02 07:27:13;;;;;;;12.77;11.77;;;25.70;99.90;;;;;;5019129;28;20258;-87
2021/07/02 07:29:40;;;;;;;12.20;11.40;;;25.60;99.90;;;;;;4993676;28;20674;-86
2021/07/02 07:32:08;;;;;;;12.67;11.77;;;25.60;99.90;;;;;;5008119;28;20216;-87
2021/07/02 07:34:41;;;;;;;11.90;11.10;;;25.70;99.90;;;;;;5002378;28;20200;-87
2021/07/02 07:37:12;;;;;;;13.00;11.80;;;25.70;99.90;;;;;;5029000;28;20733;-87
2021/07/02 07:39:40;;;;;;;12.40;11.37;;;25.80;99.90;;;;;;5004591;28;20207;-87
2021/07/02 07:42:07;;;;;;;12.80;11.90;;;25.90;99.90;;;;;;5015713;28;20189;-87
2021/07/02 07:44:34;;;;;;;12.37;11.57;;;26.00;99.90;;;;;;5010193;28;20220;-87
2021/07/02 07:47:01;;;;;;;12.90;11.90;;;25.70;99.90;;;;;;5001310;28;20208;-87
2021/07/02 07:49:28;;;;;;;12.83;11.93;;;26.10;99.90;;;;;;5001897;28;20197;-87
2021/07/02 07:51:58;;;;;;;12.73;11.83;;;26.10;99.90;;;;;;5004991;28;20224;-87
2021/07/02 07:54:25;;;;;;;12.13;11.13;;;25.70;99.90;;;;;;5005378;28;20219;-87
2021/07/02 07:56:54;;;;;;;12.93;11.90;;;25.40;99.90;;;;;;5005872;28;20220;-87
2021/07/02 07:59:22;;;;;;;13.43;12.23;;;25.10;99.90;;;;;;5021430;28;20235;-87
2021/07/02 08:01:49;;;;;;;12.73;11.70;;;24.10;99.90;;;;;;5004136;28;20204;-87
2021/07/02 08:04:16;;;;;;;12.17;11.27;;;23.70;99.90;;;;;;4998760;28;20664;-87
2021/07/02 08:06:44;;;;;;;11.50;10.60;;;23.50;99.90;;;;;;4992875;28;20645;-87
2021/07/02 08:09:11;;;;;;;12.07;11.17;;;23.30;99.90;;;;;;5003523;28;20228;-87
2021/07/02 08:11:39;;;;;;;12.63;11.70;;;23.10;99.90;;;;;;5004680;28;20231;-87
2021/07/02 08:14:08;;;;;;;12.13;11.23;;;22.70;99.90;;;;;;5014300;28;20576;-87
2021/07/02 08:16:35;;;;;;;12.27;11.37;;;23.00;99.90;;;;;;5004499;28;20598;-87
2021/07/02 08:19:03;;;;;;;11.00;10.07;;;23.50;99.90;;;;;;5014047;28;20216;-87
2021/07/02 08:21:30;;;;;;;11.63;10.73;;;24.10;99.90;;;;;;5020757;28;20204;-87
2021/07/02 08:23:57;;;;;;;12.73;11.73;;;24.40;99.90;;;;;;5005490;28;20284;-87
2021/07/02 08:26:26;;;;;;;5.97;5.37;;;24.70;99.90;;;;;;4996833;28;20207;-87
2021/07/02 08:31:39;;;;;;;12.00;11.10;;;25.00;99.90;;;;;;5004376;28;20286;-88
2021/07/02 08:34:06;;;;;;;11.43;10.57;;;25.40;99.90;;;;;;5015983;28;20206;-88
2021/07/02 08:36:32;;;;;;;11.67;10.77;;;25.50;99.90;;;;;;5013838;28;20211;-87
2021/07/02 08:38:59;;;;;;;11.37;10.40;;;25.90;99.90;;;;;;5004071;28;20219;-88
2021/07/02 08:41:26;;;;;;;11.10;10.30;;;25.40;99.90;;;;;;5004227;28;20195;-88
2021/07/02 08:43:53;;;;;;;10.40;9.60;;;24.60;99.90;;;;;;5013856;28;20211;-88
2021/07/02 08:46:24;;;;;;;10.60;9.80;;;24.60;99.90;;;;;;5000471;28;20211;-87
2021/07/02 08:48:53;;;;;;;11.17;10.37;;;25.10;99.90;;;;;;5003854;28;20223;-88
2021/07/02 08:51:20;;;;;;;11.90;10.90;;;25.70;99.90;;;;;;5020376;28;20584;-88
2021/07/02 08:53:47;;;;;;;10.77;9.97;;;25.70;99.90;;;;;;4998211;28;20286;-87
2021/07/02 08:56:14;;;;;;;11.10;10.20;;;25.60;99.90;;;;;;5004355;28;20191;-87
2021/07/02 08:58:44;;;;;;;11.20;10.20;;;26.10;99.90;;;;;;5012723;28;20231;-88
2021/07/02 09:01:30;;;;;;;10.50;9.70;;;25.40;99.90;;;;;;5007867;28;20565;-87
2021/07/02 09:04:15;;;;;;;11.03;10.23;;;24.70;99.90;;;;;;4989149;28;20196;-87
2021/07/02 09:06:42;;;;;;;10.77;9.97;;;24.60;99.90;;;;;;4991838;28;20618;-87
2021/07/02 09:09:10;;;;;;;10.80;10.00;;;24.30;99.90;;;;;;5004788;28;20234;-87
2021/07/02 09:11:37;;;;;;;10.30;9.50;;;24.10;99.90;;;;;;5012346;28;20242;-87
2021/07/02 09:14:06;;;;;;;11.87;11.00;;;24.60;99.90;;;;;;5006329;28;20536;-87
2021/07/02 09:16:36;;;;;;;10.43;9.63;;;24.80;99.90;;;;;;5003473;28;20299;-87
2021/07/02 09:19:23;;;;;;;10.77;9.97;;;24.90;99.90;;;;;;5004091;28;20226;-87
2021/07/02 09:21:51;;;;;;;11.53;10.50;;;25.10;99.90;;;;;;5012487;28;20208;-87
2021/07/02 09:24:38;;;;;;;10.27;9.30;;;25.50;99.90;;;;;;4999077;28;20701;-87
2021/07/02 09:27:23;;;;;;;10.23;9.53;;;25.70;99.90;;;;;;5001573;28;20600;-88
2021/07/02 09:30:06;;;;;;;10.00;9.30;;;26.20;99.90;;;;;;5004044;28;20266;-87
2021/07/02 09:32:34;;;;;;;11.00;10.20;;;26.70;99.90;;;;;;5001385;28;20231;-87
2021/07/02 09:35:02;;;;;;;10.80;9.90;;;27.00;99.90;;;;;;5003304;28;20196;-87
2021/07/02 09:37:32;;;;;;;9.70;9.00;;;26.80;99.90;;;;;;4982325;28;20222;-87
2021/07/02 09:40:10;;;;;;;10.53;9.73;;;27.00;99.90;;;;;;5007568;28;20256;-88
2021/07/02 09:42:37;;;;;;;11.00;10.10;;;26.60;99.90;;;;;;5012740;28;20669;-87
2021/07/02 09:45:10;;;;;;;9.60;9.00;;;26.00;99.90;;;;;;5010129;28;20200;-88
2021/07/02 09:47:38;;;;;;;10.30;9.43;;;26.00;99.90;;;;;;5012581;28;20218;-85
2021/07/02 09:50:26;;;;;;;9.93;9.23;;;26.10;99.90;;;;;;5003220;28;20259;-85
2021/07/02 09:52:56;;;;;;;9.77;8.97;;;26.40;99.90;;;;;;5003140;28;20224;-85
2021/07/02 09:55:27;;;;;;;9.97;9.27;;;26.80;99.90;;;;;;4998739;28;20675;-85
2021/07/02 09:58:08;;;;;;;9.80;9.10;;;26.80;99.40;;;;;;4997679;28;20220;-85
2021/07/02 10:00:39;;;;;;;9.70;9.10;;;27.20;96.90;;;;;;5012508;28;20199;-85
2021/07/02 10:03:06;;;;;;;9.47;8.77;;;27.10;97.40;;;;;;4998046;28;20197;-85
2021/07/02 10:05:49;;;;;;;9.50;8.80;;;27.30;97.60;;;;;;4998321;28;20211;-87
2021/07/02 10:08:17;;;;;;;9.70;9.00;;;27.10;96.70;;;;;;4999458;28;20271;-87
2021/07/02 10:10:44;;;;;;;10.20;9.33;;;27.10;96.50;;;;;;4997853;28;20210;-88
2021/07/02 10:13:12;;;;;;;10.00;9.30;;;27.20;96.80;;;;;;5002165;28;20224;-87
2021/07/02 10:15:38;;;;;;;10.00;9.30;;;27.20;97.20;;;;;;5002828;28;20208;-88
2021/07/02 10:18:11;;;;;;;10.13;9.37;;;27.20;96.40;;;;;;5002532;28;20570;-88
2021/07/02 10:20:40;;;;;;;9.70;9.00;;;26.90;97.30;;;;;;5008618;28;20204;-87
2021/07/02 10:23:09;;;;;;;9.07;8.47;;;27.10;95.90;;;;;;5016238;28;20204;-87
2021/07/02 10:25:37;;;;;;;9.50;8.80;;;27.00;97.20;;;;;;5002898;28;20635;-88
2021/07/02 10:28:05;;;;;;;9.37;8.67;;;26.90;96.90;;;;;;4997158;28;20224;-87
2021/07/02 10:30:32;;;;;;;9.20;8.50;;;26.80;94.60;;;;;;5012202;28;20197;-87
2021/07/02 10:33:00;;;;;;;8.93;8.33;;;26.80;95.20;;;;;;5003316;28;20221;-87
2021/07/02 10:35:29;;;;;;;9.40;8.70;;;26.80;97.00;;;;;;5012267;28;20200;-87
2021/07/02 10:37:59;;;;;;;9.37;8.67;;;26.70;97.10;;;;;;4998574;28;20232;-88
2021/07/02 10:40:41;;;;;;;9.13;8.43;;;26.50;96.80;;;;;;5014267;28;20200;-87
2021/07/02 10:43:11;;;;;;;9.13;8.43;;;26.70;97.80;;;;;;4999996;28;20201;-88
2021/07/02 10:45:40;;;;;;;8.83;8.23;;;26.90;97.00;;;;;;5015673;28;20188;-88
2021/07/02 10:48:07;;;;;;;8.67;8.07;;;27.00;96.20;;;;;;5000738;28;20217;-88
2021/07/02 10:50:42;;;;;;;9.43;8.73;;;27.00;96.60;;;;;;5022942;28;20208;-88
2021/07/02 10:53:28;;;;;;;9.03;8.37;;;26.80;96.00;;;;;;5018295;28;20200;-86
2021/07/02 10:55:56;;;;;;;9.47;8.70;;;26.80;94.70;;;;;;5014243;28;20196;-87
2021/07/02 10:58:23;;;;;;;9.67;8.87;;;26.60;95.00;;;;;;5023288;28;20322;-87
2021/07/02 11:01:09;;;;;;;9.47;8.67;;;26.20;95.70;;;;;;5015096;28;20206;-87
2021/07/02 11:03:38;;;;;;;8.80;8.20;;;26.10;96.50;;;;;;5004151;28;20211;-87
2021/07/02 11:06:38;;;;;;;9.20;8.50;;;26.20;95.90;;;;;;5005878;28;20760;-87
2021/07/02 11:09:07;;;;;;;9.30;8.60;;;26.40;97.00;;;;;;5005795;28;20648;-87
2021/07/02 11:12:08;;;;;;;8.90;8.30;;;26.30;95.50;;;;;;5015206;28;20295;-87
2021/07/02 11:14:55;;;;;;;8.97;8.20;;;26.40;95.60;;;;;;5004294;28;20624;-87
2021/07/02 11:17:24;;;;;;;9.23;8.53;;;26.30;96.10;;;;;;5005450;28;20216;-87
2021/07/02 11:20:25;;;;;;;9.20;8.50;;;26.40;96.10;;;;;;5015195;28;20200;-87
2021/07/02 11:22:57;;;;;;;8.93;8.23;;;26.40;96.10;;;;;;5005579;28;20288;-87
2021/07/02 11:25:26;;;;;;;10.57;9.77;;;26.20;95.90;;;;;;5015159;28;20193;-87
2021/07/02 11:28:01;;;;;;;10.40;9.60;;;26.10;95.90;;;;;;5014268;28;20659;-87
2021/07/02 11:30:34;;;;;;;9.97;9.17;;;26.00;93.60;;;;;;5015066;28;20183;-87
2021/07/02 11:33:04;;;;;;;9.80;9.00;;;26.00;94.20;;;;;;5008148;28;20294;-87
2021/07/02 11:35:33;;;;;;;9.27;8.60;;;25.90;93.90;;;;;;5021895;28;20215;-87
2021/07/02 11:38:04;;;;;;;9.13;8.43;;;25.70;95.00;;;;;;4998125;28;20246;-87
2021/07/02 11:40:33;;;;;;;9.40;8.60;;;25.60;95.60;;;;;;4997749;28;20203;-88
2021/07/02 11:43:02;;;;;;;9.10;8.50;;;25.50;94.80;;;;;;5014073;28;20198;-87
2021/07/02 11:45:39;;;;;;;9.70;8.90;;;25.40;95.40;;;;;;5001540;28;20211;-87
2021/07/02 11:48:09;;;;;;;9.90;9.20;;;25.30;95.40;;;;;;5014664;28;20741;-87
2021/07/02 11:50:40;;;;;;;9.47;8.77;;;25.40;95.30;;;;;;5010571;28;20210;-87
2021/07/02 11:53:07;;;;;;;9.73;9.03;;;25.10;95.00;;;;;;4997872;28;20223;-87
2021/07/02 11:55:34;;;;;;;9.53;8.83;;;25.10;95.20;;;;;;5004945;28;20215;-87
2021/07/02 11:58:15;;;;;;;9.17;8.57;;;25.10;95.80;;;;;;5025408;28;20227;-87
2021/07/02 12:00:41;;;;;;;9.23;8.53;;;25.30;95.70;;;;;;5014322;28;20201;-87
2021/07/02 12:03:10;;;;;;;8.67;8.07;;;25.30;95.70;;;;;;5001014;28;20201;-87
2021/07/02 12:05:37;;;;;;;9.07;8.37;;;25.40;94.30;;;;;;4999808;28;20202;-87
2021/07/02 12:08:04;;;;;;;8.87;8.23;;;25.50;94.10;;;;;;5003609;28;20227;-87
2021/07/02 12:10:31;;;;;;;9.17;8.50;;;25.60;95.30;;;;;;5004748;28;20218;-87
2021/07/02 12:13:07;;;;;;;8.90;8.30;;;25.60;95.20;;;;;;5004627;28;20212;-87
2021/07/02 12:15:36;;;;;;;9.30;8.60;;;25.50;94.80;;;;;;5014056;28;20677;-87
2021/07/02 12:18:05;;;;;;;9.77;9.07;;;25.50;95.40;;;;;;5005352;28;20223;-87
2021/07/02 12:20:33;;;;;;;9.20;8.50;;;25.50;95.30;;;;;;5013842;28;20200;-87
2021/07/02 12:23:07;;;;;;;9.50;8.80;;;25.30;94.50;;;;;;5024823;28;20189;-87
2021/07/02 12:25:35;;;;;;;9.57;8.97;;;25.20;95.70;;;;;;5004326;28;20208;-87
2021/07/02 12:28:02;;;;;;;9.77;9.07;;;25.50;95.50;;;;;;4998896;28;20230;-87
2021/07/02 12:30:29;;;;;;;9.60;8.90;;;25.60;94.90;;;;;;5013861;28;20197;-87
2021/07/02 12:32:57;;;;;;;9.40;8.80;;;25.70;94.40;;;;;;5004229;28;20210;-86
2021/07/02 12:35:24;;;;;;;8.93;8.33;;;25.90;94.60;;;;;;5000190;28;20238;-87
2021/07/02 12:37:52;;;;;;;9.80;9.10;;;26.10;94.90;;;;;;5013494;28;20219;-87
2021/07/02 12:40:19;;;;;;;9.83;9.03;;;26.40;95.30;;;;;;5016139;28;20668;-86
2021/07/02 12:42:47;;;;;;;9.07;8.37;;;26.50;93.50;;;;;;5017015;28;20581;-87
2021/07/02 12:45:15;;;;;;;8.57;7.97;;;26.30;93.90;;;;;;5000212;28;20709;-87